createdAt,value
2017-10-21T00:03:47.533Z,1005.85
2017-10-21T00:13:47.523Z,1005.89
2017-10-21T00:23:47.546Z,1005.86
2017-10-21T00:33:47.520Z,1005.79
2017-10-21T00:43:47.541Z,1005.85
2017-10-21T00:53:47.515Z,1005.89
2017-10-21T01:03:47.508Z,1005.73
2017-10-21T01:13:47.516Z,1005.57
2017-10-21T01:23:47.531Z,1005.52
2017-10-21T01:33:47.522Z,1005.56
2017-10-21T01:43:47.542Z,1005.56
2017-10-21T01:53:47.607Z,1005.52
2017-10-21T02:03:47.531Z,1005.48
2017-10-21T02:13:47.537Z,1005.47
2017-10-21T02:23:47.592Z,1005.42
2017-10-21T02:33:47.560Z,1005.37
2017-10-21T02:43:47.630Z,1005.26
2017-10-21T02:53:47.585Z,1005.19
2017-10-21T03:03:47.538Z,1004.95
2017-10-21T03:13:47.610Z,1004.93
2017-10-21T03:23:47.573Z,1004.79
2017-10-21T03:33:47.522Z,1004.89
2017-10-21T03:43:47.587Z,1004.77
2017-10-21T03:53:47.550Z,1004.65
2017-10-21T04:03:47.615Z,1004.59
2017-10-21T04:13:47.572Z,1004.67
2017-10-21T04:23:47.545Z,1004.52
2017-10-21T04:33:47.597Z,1004.47
2017-10-21T04:43:47.547Z,1004.47
2017-10-21T04:53:47.637Z,1004.51
2017-10-21T05:03:47.593Z,1004.44
2017-10-21T05:13:47.541Z,1004.33
2017-10-21T05:23:47.604Z,1004.18
2017-10-21T05:33:47.576Z,1004.15
2017-10-21T05:43:47.521Z,1004.23
2017-10-21T05:53:47.585Z,1004.28
2017-10-21T06:03:47.553Z,1004.26
2017-10-21T06:13:47.617Z,1004.09
2017-10-21T06:23:47.573Z,1004.08
2017-10-21T06:33:47.556Z,1004.08
2017-10-21T06:43:47.588Z,1004.02
2017-10-21T06:53:47.550Z,1004.05
2017-10-21T07:03:47.517Z,1003.8
2017-10-21T07:13:47.573Z,1004.09
2017-10-21T07:23:47.531Z,1003.98
2017-10-21T07:33:47.601Z,1003.99
2017-10-21T07:43:50.059Z,1003.91
2017-10-21T07:53:47.527Z,1004.03
2017-10-21T08:03:47.607Z,1003.91
2017-10-21T08:13:47.549Z,1003.79
2017-10-21T08:23:47.851Z,1003.76
2017-10-21T08:33:47.587Z,1003.74
2017-10-21T08:43:47.540Z,1003.73
2017-10-21T08:53:47.605Z,1003.87
2017-10-21T09:03:47.580Z,1003.88
2017-10-21T09:13:47.605Z,1003.83
2017-10-21T09:23:47.598Z,1003.75
2017-10-21T09:33:47.535Z,1003.59
2017-10-21T09:43:48.666Z,1003.6
2017-10-21T09:53:47.566Z,1003.59
2017-10-21T10:03:47.527Z,1003.51
2017-10-21T10:13:47.611Z,1003.55
2017-10-21T10:23:47.562Z,1003.62
2017-10-21T10:33:47.585Z,1003.58
2017-10-21T10:43:47.562Z,1003.66
2017-10-21T10:53:47.514Z,1003.63
2017-10-21T11:03:47.622Z,1003.6
2017-10-21T11:13:47.536Z,1003.42
2017-10-21T11:23:47.600Z,1003.25
2017-10-21T11:33:47.561Z,1003.26
2017-10-21T11:43:47.546Z,1003.42
2017-10-21T11:53:47.492Z,1003.37
2017-10-21T12:03:47.494Z,1003.34
2017-10-21T12:13:47.504Z,1003.22
2017-10-21T12:23:47.495Z,1003.23
2017-10-21T12:33:47.533Z,1003.17
2017-10-21T12:43:47.588Z,1003.1
2017-10-21T12:53:47.562Z,1003.11
2017-10-21T13:03:47.618Z,1003.06
2017-10-21T13:13:47.514Z,1002.92
2017-10-21T13:23:47.611Z,1002.78
2017-10-21T13:33:47.605Z,1002.82
2017-10-21T13:43:47.562Z,1002.85
2017-10-21T13:53:47.520Z,1002.66
2017-10-21T14:03:47.595Z,1002.62
2017-10-21T14:13:47.560Z,1002.57
2017-10-21T14:23:49.554Z,1002.57
2017-10-21T14:33:47.584Z,1002.58
2017-10-21T14:43:47.533Z,1002.52
2017-10-21T14:53:48.616Z,1002.54
2017-10-21T15:03:47.577Z,1002.6
2017-10-21T15:13:47.622Z,1002.55
2017-10-21T15:23:49.014Z,1002.61
2017-10-21T15:33:47.531Z,1002.53
2017-10-21T15:43:47.606Z,1002.53
2017-10-21T15:53:47.578Z,1002.48
2017-10-21T16:03:47.530Z,1002.54
2017-10-21T16:13:47.603Z,1002.61
2017-10-21T16:23:47.553Z,1002.6
2017-10-21T16:33:47.610Z,1002.71
2017-10-21T16:43:47.572Z,1002.72
2017-10-21T16:53:47.527Z,1002.85
2017-10-21T17:03:47.599Z,1002.82
2017-10-21T17:13:47.630Z,1003
2017-10-21T17:23:47.523Z,1002.99
2017-10-21T17:33:47.579Z,1003.13
2017-10-21T17:43:47.544Z,1003.11
2017-10-21T17:53:47.605Z,1003.16
2017-10-21T18:03:47.569Z,1003.14
2017-10-21T18:13:47.536Z,1003.15
2017-10-21T18:23:47.607Z,1003.28
2017-10-21T18:33:48.404Z,1003.17
2017-10-21T18:43:47.623Z,1003.13
2017-10-21T18:53:47.579Z,1003.13
2017-10-21T19:03:47.537Z,1003.09
2017-10-21T19:13:47.633Z,1003.05
2017-10-21T19:23:47.558Z,1003.21
2017-10-21T19:33:47.514Z,1003.18
2017-10-21T19:43:47.610Z,1003.2
2017-10-21T19:53:47.547Z,1003.14
2017-10-21T20:03:47.624Z,1003.26
2017-10-21T20:13:47.576Z,1003.31
2017-10-21T20:23:47.532Z,1003.36
2017-10-21T20:33:47.600Z,1003.35
2017-10-21T20:43:47.565Z,1003.27
2017-10-21T20:53:47.509Z,1003.32
2017-10-21T21:03:47.613Z,1003.35
2017-10-21T21:13:47.536Z,1003.38
2017-10-21T21:23:47.601Z,1003.38
2017-10-21T21:33:47.585Z,1003.34
2017-10-21T21:43:47.626Z,1003.29
2017-10-21T21:53:47.621Z,1003.31
2017-10-21T22:03:47.558Z,1003.39
2017-10-21T22:13:47.528Z,1003.38
2017-10-21T22:23:47.575Z,1003.32
2017-10-21T22:33:47.531Z,1003.37
2017-10-21T22:43:47.609Z,1003.46
2017-10-21T22:53:47.559Z,1003.32
2017-10-21T23:03:47.536Z,1003.28
2017-10-21T23:13:47.587Z,1003.17
2017-10-21T23:23:47.546Z,1003.1
2017-10-21T23:33:47.612Z,1003.04
2017-10-21T23:43:47.564Z,1003.01
2017-10-21T23:53:47.548Z,1002.99
